Aviation Digital Data Service (ADDS)

Output produced by METARs form (0000 UTC 26 May 2017)
found at http://aviationweather.gov/adds/metars/
 
KFRG 252353Z 09008KT 1SM BR OVC003 15/15 A2954 RMK AO2 SFC VIS 1 1/4 SLP001 60000 T01500150 10156 20150 58002
KFRG 252330Z 09009KT 1SM BR OVC003 15/15 A2954 RMK AO2 SFC VIS 1 3/4 T01500150
KISP 252356Z 08008KT 1/4SM R06/4500V5500FT FG VV002 14/14 A2954 RMK AO2 SFC VIS 1/2 SLP002 60000 T01440144 10150 20144 58003
KISP 252339Z 2600/2624 07007KT 1/2SM -DZ FG OVC003 
     FM260300 VRB05KT 2SM +SHRA BR VCTS SCT006 OVC015CB 
     FM260700 VRB05KT 2SM SHRA BR OVC004 
     FM261100 30008KT 6SM -SHRA SCT007 BKN012 
     FM261500 29012KT P6SM SCT015 BKN025 
     FM261700 29014G24KT P6SM SCT025 BKN035
       
KJFK 252351Z 08008KT 1SM -DZ BR OVC003 16/16 A2954 RMK AO2 SFC VIS 2 1/2 SLP001 VIS E-SE 1 P0000 60002 T01560156 10156 20150 51003
KJFK 252339Z 2600/2706 07009KT 2SM -DZ BR OVC004 
     FM260300 VRB05KT 2SM +SHRA BR VCTS SCT006 OVC015CB 
     FM260700 VRB05KT 2SM SHRA BR OVC004 
     FM261000 31008KT 6SM -SHRA SCT007 BKN012 
     FM261400 29014KT P6SM SCT015 BKN025 
     FM261600 29016G26KT P6SM SCT025 BKN035 
     FM270000 31010KT P6SM SCT050
       
KBDR 252352Z 06010KT 1 1/4SM BR OVC003 15/14 A2956 RMK AO2 CIG 002V007 SLP010 60008 T01500139 10156 20144 58006
KBDR 252321Z 08010KT 1 1/4SM BR OVC003 15/14 A2957 RMK AO2 T01500139
KBDR 252313Z 08011KT 2SM BR BKN003 OVC012 15/13 A2957 RMK AO2 T01500133
KBDR 252339Z 2600/2624 08010KT 1SM -DZ BR OVC004 
     FM260400 06005KT 2SM +SHRA BR VCTS SCT006 OVC015CB 
     FM260800 VRB05KT 2SM SHRA BR OVC004 
     FM261100 30008KT 6SM -SHRA SCT007 BKN012 
     FM261500 29010KT P6SM SCT015 BKN025 
     FM261700 29013G22KT P6SM SCT025 BKN035